createdAt,value
2022-07-27T00:01:50.837Z,55.39
2022-07-27T00:04:21.787Z,55.77
2022-07-27T00:06:48.694Z,56.20
2022-07-27T00:09:16.149Z,55.86
2022-07-27T00:11:43.241Z,56.29
2022-07-27T00:14:09.965Z,56.14
2022-07-27T00:16:36.944Z,56.29
2022-07-27T00:19:04.213Z,57.24
2022-07-27T00:21:35.788Z,57.24
2022-07-27T00:24:11.686Z,56.92
2022-07-27T00:26:38.767Z,57.23
2022-07-27T00:29:05.647Z,56.92
2022-07-27T00:31:32.208Z,56.65
2022-07-27T00:33:59.110Z,56.59
2022-07-27T00:36:26.395Z,56.35
2022-07-27T00:38:53.073Z,56.83
2022-07-27T00:41:20.138Z,55.81
2022-07-27T00:43:58.063Z,56.14
2022-07-27T00:46:26.519Z,56.53
2022-07-27T00:48:53.835Z,56.34
2022-07-27T00:51:22.049Z,56.66
2022-07-27T00:56:30.330Z,56.03
2022-07-27T00:58:58.216Z,56.31
2022-07-27T01:01:25.132Z,55.38
2022-07-27T01:03:51.926Z,56.19
2022-07-27T01:06:26.846Z,56.93
2022-07-27T01:09:18.163Z,56.56
2022-07-27T01:11:46.854Z,56.02
2022-07-27T01:14:15.226Z,55.94
2022-07-27T01:16:42.762Z,55.54
2022-07-27T01:19:10.823Z,55.71
2022-07-27T01:21:38.108Z,55.55
2022-07-27T01:24:05.355Z,55.65
2022-07-27T01:26:33.671Z,55.20
2022-07-27T01:29:01.323Z,55.43
2022-07-27T01:31:28.945Z,55.56
2022-07-27T01:33:55.920Z,55.33
2022-07-27T01:36:22.446Z,55.04
2022-07-27T01:38:49.284Z,54.82
2022-07-27T01:41:15.810Z,55.44
2022-07-27T01:43:42.548Z,55.19
2022-07-27T01:46:09.159Z,55.49
2022-07-27T01:48:36.243Z,56.45
2022-07-27T01:51:02.812Z,55.70
2022-07-27T01:53:29.355Z,56.32
2022-07-27T01:55:55.936Z,56.66
2022-07-27T01:58:22.445Z,56.62
2022-07-27T02:00:50.153Z,56.94
2022-07-27T02:03:17.120Z,56.93
2022-07-27T02:05:43.729Z,56.69
2022-07-27T02:08:10.374Z,56.84
2022-07-27T02:13:22.184Z,56.24
2022-07-27T02:15:49.694Z,56.27
2022-07-27T02:18:26.773Z,55.92
2022-07-27T02:21:02.802Z,55.85
2022-07-27T02:23:31.368Z,55.82
2022-07-27T02:25:58.749Z,55.62
2022-07-27T02:28:26.074Z,55.63
2022-07-27T02:30:53.011Z,55.77
2022-07-27T02:33:19.723Z,55.53
2022-07-27T02:35:46.352Z,56.02
2022-07-27T02:38:13.131Z,55.81
2022-07-27T02:40:39.840Z,55.73
2022-07-27T02:43:06.514Z,55.92
2022-07-27T02:45:33.246Z,55.83
2022-07-27T02:47:59.908Z,56.26
2022-07-27T02:50:26.736Z,56.81
2022-07-27T02:52:53.490Z,56.45
2022-07-27T02:55:20.352Z,56.33
2022-07-27T02:57:46.926Z,56.94
2022-07-27T03:00:16.297Z,56.63
2022-07-27T03:02:43.082Z,56.53
2022-07-27T03:05:11.465Z,57.46
2022-07-27T03:07:38.429Z,58.06
2022-07-27T03:10:05.803Z,58.13
2022-07-27T03:12:32.426Z,58.35
2022-07-27T03:14:58.963Z,58.35
2022-07-27T03:17:26.611Z,58.21
2022-07-27T03:19:53.213Z,58.16
2022-07-27T03:22:19.743Z,58.00
2022-07-27T03:24:46.505Z,58.38
2022-07-27T03:27:13.603Z,58.36
2022-07-27T03:29:40.150Z,58.64
2022-07-27T03:32:06.888Z,58.97
2022-07-27T03:34:33.467Z,58.82
2022-07-27T03:37:00.110Z,58.89
2022-07-27T03:39:27.082Z,59.18
2022-07-27T03:41:53.638Z,59.05
2022-07-27T03:44:20.173Z,59.32
2022-07-27T03:46:46.769Z,59.17
2022-07-27T03:49:13.995Z,59.20
2022-07-27T03:51:41.887Z,59.20
2022-07-27T03:54:08.431Z,59.19
2022-07-27T03:56:35.051Z,58.94
2022-07-27T03:59:01.618Z,59.92
2022-07-27T04:01:28.303Z,59.76
2022-07-27T04:03:54.834Z,59.67
2022-07-27T04:06:21.767Z,59.22
2022-07-27T04:08:48.415Z,59.46
2022-07-27T04:11:18.824Z,59.07
2022-07-27T04:13:49.253Z,59.32
2022-07-27T04:16:16.231Z,59.40
2022-07-27T04:18:42.991Z,59.04
2022-07-27T04:21:09.657Z,59.87
2022-07-27T04:23:38.490Z,59.97
2022-07-27T04:26:05.274Z,60.43
2022-07-27T04:28:32.839Z,59.58
2022-07-27T04:30:59.615Z,58.76
2022-07-27T04:33:26.307Z,58.90
2022-07-27T04:35:53.197Z,58.20
2022-07-27T04:38:20.033Z,57.71
2022-07-27T04:40:46.586Z,57.25
2022-07-27T04:43:13.187Z,57.48
2022-07-27T04:45:39.820Z,57.16
2022-07-27T04:48:08.634Z,56.77
2022-07-27T04:50:39.787Z,56.74
2022-07-27T04:53:06.359Z,56.66
2022-07-27T04:55:33.119Z,56.48
2022-07-27T04:57:59.728Z,56.48
2022-07-27T05:00:26.332Z,56.00
2022-07-27T05:02:52.900Z,55.61
2022-07-27T05:05:20.157Z,54.93
2022-07-27T05:07:46.782Z,54.65
2022-07-27T05:10:19.505Z,53.82
2022-07-27T05:12:46.940Z,53.85
2022-07-27T05:15:13.497Z,53.13
2022-07-27T05:17:40.356Z,53.21
2022-07-27T05:20:07.545Z,53.39
2022-07-27T05:22:39.339Z,52.52
2022-07-27T05:25:07.648Z,52.98
2022-07-27T05:27:34.207Z,54.03
2022-07-27T05:30:00.763Z,52.76
2022-07-27T05:32:27.350Z,49.73
2022-07-27T05:34:54.094Z,46.85
2022-07-27T05:37:20.735Z,43.86
2022-07-27T05:39:47.286Z,42.25
2022-07-27T05:42:14.161Z,39.48
2022-07-27T05:44:40.694Z,37.28
2022-07-27T05:47:07.594Z,36.70
2022-07-27T05:49:38.142Z,36.10
2022-07-27T05:52:04.930Z,35.62
2022-07-27T05:54:31.497Z,35.37
2022-07-27T05:56:58.303Z,34.65
2022-07-27T05:59:24.844Z,33.95
2022-07-27T06:01:51.663Z,32.54
2022-07-27T06:04:18.359Z,32.15
2022-07-27T06:07:03.399Z,32.00
2022-07-27T06:09:29.926Z,31.25
2022-07-27T06:11:56.918Z,31.71
2022-07-27T06:14:23.475Z,31.38
2022-07-27T06:16:50.072Z,30.69
2022-07-27T06:19:16.691Z,30.25
2022-07-27T06:21:43.234Z,29.69
2022-07-27T06:24:09.773Z,27.56
2022-07-27T06:26:36.433Z,29.27
2022-07-27T06:29:02.997Z,28.79
2022-07-27T06:31:37.775Z,28.00
2022-07-27T06:34:08.188Z,27.71
2022-07-27T06:36:39.787Z,28.34
2022-07-27T06:39:06.354Z,27.87
2022-07-27T06:41:34.522Z,28.55
2022-07-27T06:44:01.076Z,28.52
2022-07-27T06:46:27.708Z,27.32
2022-07-27T06:48:56.661Z,28.08
2022-07-27T06:51:24.093Z,27.18
2022-07-27T06:53:53.217Z,27.56
2022-07-27T06:56:21.253Z,26.95
2022-07-27T06:58:48.615Z,27.71
2022-07-27T07:01:15.301Z,26.41
2022-07-27T07:03:42.607Z,27.97
2022-07-27T07:06:09.242Z,28.44
2022-07-27T07:08:36.267Z,28.30
2022-07-27T07:11:03.359Z,27.82
2022-07-27T07:13:33.111Z,26.92
2022-07-27T07:16:03.716Z,28.17
2022-07-27T07:18:30.351Z,28.63
2022-07-27T07:20:56.886Z,29.04
2022-07-27T07:23:23.474Z,29.36
2022-07-27T07:25:50.105Z,30.94
2022-07-27T07:28:16.693Z,31.81
2022-07-27T07:30:44.198Z,31.92
2022-07-27T07:33:10.749Z,32.94
2022-07-27T07:35:37.296Z,31.78
2022-07-27T07:38:23.941Z,32.08
2022-07-27T07:40:50.482Z,31.02
2022-07-27T07:43:17.645Z,30.59
2022-07-27T07:45:51.633Z,32.30
2022-07-27T07:48:20.294Z,31.92
2022-07-27T07:50:52.065Z,30.75
2022-07-27T07:53:21.469Z,29.95
2022-07-27T07:55:48.092Z,29.29
2022-07-27T07:58:15.098Z,29.89
2022-07-27T08:00:42.118Z,29.47
2022-07-27T08:03:08.959Z,30.51
2022-07-27T08:05:35.970Z,30.74
2022-07-27T08:08:02.775Z,31.75
2022-07-27T08:10:29.370Z,32.07
2022-07-27T08:12:56.523Z,33.12
2022-07-27T08:15:30.028Z,32.79
2022-07-27T08:18:03.297Z,33.42
2022-07-27T08:20:29.887Z,33.79
2022-07-27T08:22:57.347Z,34.04
2022-07-27T08:25:23.891Z,35.46
2022-07-27T08:27:50.448Z,36.66
2022-07-27T08:30:17.867Z,36.58
2022-07-27T08:32:53.312Z,37.71
2022-07-27T08:35:21.124Z,39.34
2022-07-27T08:37:48.264Z,38.82
2022-07-27T08:43:02.913Z,37.95
2022-07-27T08:45:32.873Z,38.02
2022-07-27T08:47:59.922Z,38.74
2022-07-27T08:50:30.592Z,39.33
2022-07-27T08:53:00.503Z,39.67
2022-07-27T08:55:28.491Z,39.17
2022-07-27T08:58:02.249Z,40.81
2022-07-27T09:00:29.944Z,41.58
2022-07-27T09:02:57.787Z,41.86
2022-07-27T09:05:24.376Z,42.48
2022-07-27T09:07:51.714Z,42.47
2022-07-27T09:10:33.276Z,41.81
2022-07-27T09:13:15.644Z,41.01
2022-07-27T09:16:12.780Z,39.90
2022-07-27T09:18:33.795Z,39.19
2022-07-27T09:21:23.916Z,37.54
2022-07-27T09:23:53.358Z,37.25
2022-07-27T09:26:33.343Z,37.90
2022-07-27T09:29:06.972Z,38.04
2022-07-27T09:31:42.235Z,37.93
2022-07-27T09:34:09.453Z,36.79
2022-07-27T09:36:52.950Z,38.12
2022-07-27T09:39:22.771Z,37.28
2022-07-27T09:41:57.643Z,36.05
2022-07-27T09:44:42.963Z,36.79
2022-07-27T09:47:26.744Z,36.11
2022-07-27T09:50:06.847Z,34.77
2022-07-27T09:52:33.410Z,34.43
2022-07-27T09:55:05.539Z,33.59
2022-07-27T09:57:51.477Z,34.52
2022-07-27T10:00:18.493Z,35.06
2022-07-27T10:02:45.330Z,34.79
2022-07-27T10:05:13.974Z,36.26
2022-07-27T10:07:40.817Z,35.91
2022-07-27T10:10:07.818Z,36.04
2022-07-27T10:12:34.995Z,36.51
2022-07-27T10:15:01.626Z,36.94
2022-07-27T10:17:28.392Z,37.11
2022-07-27T10:19:56.949Z,37.33
2022-07-27T10:22:49.170Z,37.35
2022-07-27T10:25:15.751Z,38.04
2022-07-27T10:27:42.427Z,41.52
2022-07-27T10:30:09.715Z,42.08
2022-07-27T10:32:37.126Z,43.73
2022-07-27T10:35:03.934Z,43.98
2022-07-27T10:37:33.599Z,43.59
2022-07-27T10:40:21.880Z,43.83
2022-07-27T10:42:54.259Z,43.54
2022-07-27T10:45:22.432Z,43.86
2022-07-27T10:47:52.816Z,44.39
2022-07-27T10:50:20.819Z,43.77
2022-07-27T10:52:58.479Z,43.20
2022-07-27T10:55:36.258Z,43.78
2022-07-27T10:58:15.216Z,42.34
2022-07-27T11:00:58.985Z,42.71
2022-07-27T11:03:27.074Z,42.67
2022-07-27T11:06:21.987Z,41.67
2022-07-27T11:09:27.192Z,41.17
2022-07-27T11:11:40.534Z,41.38
2022-07-27T11:14:08.337Z,41.81
2022-07-27T11:16:53.988Z,41.98
2022-07-27T11:19:23.537Z,39.94
2022-07-27T11:21:52.324Z,39.90
2022-07-27T11:24:19.194Z,39.14
2022-07-27T11:26:51.174Z,38.64
2022-07-27T11:29:21.320Z,37.30
2022-07-27T11:31:56.388Z,38.00
2022-07-27T11:34:29.158Z,36.04
2022-07-27T11:36:58.237Z,35.51
2022-07-27T11:42:20.843Z,34.84
2022-07-27T11:44:48.846Z,35.72
2022-07-27T11:47:20.613Z,36.66
2022-07-27T11:49:47.271Z,37.07
2022-07-27T11:52:17.517Z,37.33
2022-07-27T11:54:44.074Z,36.79
2022-07-27T11:57:13.754Z,38.00
2022-07-27T11:59:42.635Z,38.39
2022-07-27T12:02:21.868Z,37.54
2022-07-27T12:04:50.649Z,36.51
2022-07-27T12:07:22.071Z,36.92
2022-07-27T12:09:56.562Z,37.36
2022-07-27T12:12:25.890Z,37.69
2022-07-27T12:14:57.260Z,36.67
2022-07-27T12:17:29.995Z,37.07
2022-07-27T12:20:07.148Z,36.90
2022-07-27T12:22:36.930Z,38.54
2022-07-27T12:25:24.035Z,36.97
2022-07-27T12:28:01.061Z,37.06
2022-07-27T12:30:37.884Z,36.63
2022-07-27T12:33:07.487Z,34.98
2022-07-27T12:35:46.425Z,35.60
2022-07-27T12:38:13.556Z,35.97
2022-07-27T12:40:46.137Z,36.77
2022-07-27T12:43:17.379Z,36.58
2022-07-27T12:45:44.114Z,35.55
2022-07-27T12:48:20.295Z,35.92
2022-07-27T12:50:56.557Z,35.86
2022-07-27T12:53:23.492Z,36.41
2022-07-27T12:55:50.032Z,35.93
2022-07-27T12:58:17.080Z,36.12
2022-07-27T13:00:43.913Z,36.39
2022-07-27T13:03:10.595Z,36.82
2022-07-27T13:05:37.159Z,36.20
2022-07-27T13:08:04.620Z,37.99
2022-07-27T13:10:31.357Z,39.09
2022-07-27T13:12:58.936Z,37.58
2022-07-27T13:15:26.264Z,37.46
2022-07-27T13:17:52.893Z,36.68
2022-07-27T13:20:19.726Z,37.67
2022-07-27T13:22:46.877Z,37.30
2022-07-27T13:25:16.996Z,35.98
2022-07-27T13:27:47.008Z,35.77
2022-07-27T13:30:15.769Z,36.50
2022-07-27T13:32:43.715Z,37.46
2022-07-27T13:35:12.419Z,38.12
2022-07-27T13:37:39.646Z,37.68
2022-07-27T13:40:07.646Z,37.51
2022-07-27T13:42:34.211Z,37.97
2022-07-27T13:45:08.480Z,38.08
2022-07-27T13:47:35.935Z,37.29
2022-07-27T13:50:03.488Z,38.36
2022-07-27T13:52:30.156Z,39.30
2022-07-27T13:54:56.750Z,39.80
2022-07-27T13:57:23.526Z,39.88
2022-07-27T13:59:50.081Z,40.53
2022-07-27T14:02:17.379Z,38.57
2022-07-27T14:04:49.754Z,38.34
2022-07-27T14:07:17.209Z,38.46
2022-07-27T14:10:02.883Z,38.56
2022-07-27T14:12:29.615Z,38.35
2022-07-27T14:14:56.752Z,38.18
2022-07-27T14:17:23.652Z,39.12
2022-07-27T14:19:50.192Z,39.13
2022-07-27T14:22:16.744Z,39.74
2022-07-27T14:24:43.518Z,39.95
2022-07-27T14:27:10.060Z,40.29
2022-07-27T14:29:36.601Z,40.87
2022-07-27T14:32:03.516Z,40.25
2022-07-27T14:34:30.116Z,40.95
2022-07-27T14:36:56.705Z,40.79
2022-07-27T14:39:23.754Z,40.84
2022-07-27T14:41:50.875Z,40.81
2022-07-27T14:44:18.819Z,40.04
2022-07-27T14:46:46.659Z,38.35
2022-07-27T14:49:14.796Z,38.69
2022-07-27T14:51:41.754Z,38.20
2022-07-27T14:54:08.413Z,38.37
2022-07-27T14:56:36.377Z,37.46
2022-07-27T14:59:03.459Z,37.22
2022-07-27T15:01:30.165Z,37.57
2022-07-27T15:03:56.764Z,38.56
2022-07-27T15:06:23.652Z,38.33
2022-07-27T15:08:50.181Z,38.25
2022-07-27T15:11:17.157Z,36.49
2022-07-27T15:13:43.714Z,36.14
2022-07-27T15:16:11.924Z,35.19
2022-07-27T15:18:39.127Z,35.17
2022-07-27T15:21:13.345Z,35.81
2022-07-27T15:23:43.131Z,36.80
2022-07-27T15:26:09.794Z,37.55
2022-07-27T15:28:36.464Z,37.50
2022-07-27T15:31:03.452Z,37.60
2022-07-27T15:33:30.478Z,37.10
2022-07-27T15:35:57.011Z,37.29
2022-07-27T15:38:23.564Z,37.27
2022-07-27T15:40:50.784Z,37.77
2022-07-27T15:43:18.327Z,36.97
2022-07-27T15:45:50.655Z,37.31
2022-07-27T15:48:20.027Z,37.00
2022-07-27T15:50:49.010Z,37.98
2022-07-27T15:53:16.209Z,37.67
2022-07-27T15:55:43.417Z,38.94
2022-07-27T15:58:11.005Z,39.78
2022-07-27T16:00:41.133Z,40.15
2022-07-27T16:03:10.125Z,39.64
2022-07-27T16:05:38.226Z,39.99
2022-07-27T16:08:06.229Z,40.02
2022-07-27T16:10:32.871Z,41.10
2022-07-27T16:13:00.507Z,41.35
2022-07-27T16:15:46.616Z,41.73
2022-07-27T16:18:14.109Z,42.37
2022-07-27T16:20:40.725Z,42.40
2022-07-27T16:23:17.610Z,42.90
2022-07-27T16:26:02.513Z,42.88
2022-07-27T16:28:31.920Z,40.80
2022-07-27T16:30:58.574Z,41.54
2022-07-27T16:33:25.260Z,41.39
2022-07-27T16:35:52.053Z,41.84
2022-07-27T16:38:18.945Z,42.06
2022-07-27T16:40:46.002Z,42.20
2022-07-27T16:43:12.569Z,42.87
2022-07-27T16:45:39.087Z,41.05
2022-07-27T16:48:06.121Z,41.76
2022-07-27T16:50:32.658Z,40.94
2022-07-27T16:52:59.246Z,41.21
2022-07-27T16:55:27.474Z,41.04
2022-07-27T16:57:54.421Z,41.60
2022-07-27T17:00:21.611Z,41.29
2022-07-27T17:02:48.133Z,41.08
2022-07-27T17:05:14.682Z,41.50
2022-07-27T17:07:43.045Z,41.71
2022-07-27T17:10:09.886Z,41.76
2022-07-27T17:12:39.248Z,42.66
2022-07-27T17:15:07.523Z,41.83
2022-07-27T17:17:34.531Z,40.75
2022-07-27T17:20:01.363Z,42.18
2022-07-27T17:22:27.930Z,42.63
2022-07-27T17:24:54.460Z,42.52
2022-07-27T17:27:21.868Z,42.85
2022-07-27T17:29:48.631Z,42.87
2022-07-27T17:32:15.482Z,42.83
2022-07-27T17:34:43.374Z,42.75
2022-07-27T17:37:09.920Z,43.84
2022-07-27T17:39:36.534Z,43.47
2022-07-27T17:42:04.440Z,43.55
2022-07-27T17:44:32.305Z,44.12
2022-07-27T17:47:01.191Z,43.81
2022-07-27T17:49:28.497Z,44.45
2022-07-27T17:51:55.400Z,44.89
2022-07-27T17:54:23.606Z,45.17
2022-07-27T17:56:50.178Z,45.18
2022-07-27T17:59:36.525Z,44.92
2022-07-27T18:02:04.857Z,44.52
2022-07-27T18:04:34.444Z,44.12
2022-07-27T18:07:05.636Z,45.37
2022-07-27T18:09:32.174Z,45.13
2022-07-27T18:11:58.781Z,44.97
2022-07-27T18:14:25.360Z,45.21
2022-07-27T18:16:51.927Z,44.42
2022-07-27T18:19:18.732Z,44.67
2022-07-27T18:21:45.300Z,44.77
2022-07-27T18:24:11.847Z,44.54
2022-07-27T18:26:38.675Z,44.14
2022-07-27T18:29:05.710Z,44.81
2022-07-27T18:31:32.474Z,44.14
2022-07-27T18:33:59.401Z,44.29
2022-07-27T18:36:26.063Z,44.76
2022-07-27T18:38:53.154Z,44.72
2022-07-27T18:41:19.870Z,44.54
2022-07-27T18:43:53.162Z,45.09
2022-07-27T18:46:21.570Z,44.93
2022-07-27T18:48:48.852Z,44.44
2022-07-27T18:51:16.232Z,44.48
2022-07-27T18:53:44.018Z,44.67
2022-07-27T18:56:10.922Z,44.45
2022-07-27T18:58:38.201Z,44.44
2022-07-27T19:01:04.826Z,45.52
2022-07-27T19:03:31.833Z,44.96
2022-07-27T19:05:58.894Z,45.42
2022-07-27T19:08:25.549Z,46.03
2022-07-27T19:10:53.007Z,45.75
2022-07-27T19:13:20.015Z,46.48
2022-07-27T19:15:46.572Z,46.19
2022-07-27T19:18:13.503Z,46.45
2022-07-27T19:20:41.297Z,46.54
2022-07-27T19:23:07.866Z,46.71
2022-07-27T19:25:34.717Z,46.80
2022-07-27T19:28:03.151Z,46.91
2022-07-27T19:30:29.877Z,47.17
2022-07-27T19:32:56.559Z,47.36
2022-07-27T19:35:23.371Z,47.09
2022-07-27T19:37:49.903Z,46.98
2022-07-27T19:43:07.021Z,47.20
2022-07-27T19:45:33.970Z,46.35
2022-07-27T19:48:05.336Z,46.32
2022-07-27T19:50:32.002Z,46.34
2022-07-27T19:52:58.579Z,45.80
2022-07-27T19:55:25.383Z,45.77
2022-07-27T19:57:52.213Z,45.89
2022-07-27T20:00:18.920Z,45.73
2022-07-27T20:02:45.811Z,46.46
2022-07-27T20:05:12.688Z,46.78
2022-07-27T20:07:39.225Z,47.13
2022-07-27T20:10:06.654Z,46.38
2022-07-27T20:12:33.375Z,46.43
2022-07-27T20:15:00.391Z,46.31
2022-07-27T20:17:27.857Z,46.21
2022-07-27T20:19:54.872Z,46.43
2022-07-27T20:22:21.471Z,46.71
2022-07-27T20:24:48.029Z,46.94
2022-07-27T20:27:14.599Z,47.01
2022-07-27T20:29:41.171Z,46.77
2022-07-27T20:32:07.867Z,46.56
2022-07-27T20:34:34.470Z,46.67
2022-07-27T20:37:01.004Z,46.27
2022-07-27T20:39:27.546Z,46.40
2022-07-27T20:41:54.217Z,46.23
2022-07-27T20:44:21.063Z,46.18
2022-07-27T20:46:48.057Z,46.20
2022-07-27T20:49:15.065Z,45.81
2022-07-27T20:51:42.097Z,46.29
2022-07-27T20:54:08.715Z,45.96
2022-07-27T20:56:35.283Z,46.49
2022-07-27T20:59:01.931Z,46.99
2022-07-27T21:01:29.930Z,47.15
2022-07-27T21:03:56.752Z,47.77
2022-07-27T21:06:23.524Z,47.70
2022-07-27T21:08:50.058Z,47.87
2022-07-27T21:11:16.905Z,47.67
2022-07-27T21:13:43.480Z,47.60
2022-07-27T21:16:10.079Z,47.40
2022-07-27T21:18:37.183Z,47.33
2022-07-27T21:21:03.894Z,47.75
2022-07-27T21:23:52.096Z,48.53
2022-07-27T21:26:18.681Z,47.71
2022-07-27T21:28:47.061Z,47.62
2022-07-27T21:31:13.593Z,47.80
2022-07-27T21:33:40.303Z,48.10
2022-07-27T21:36:07.192Z,47.93
2022-07-27T21:38:33.745Z,48.08
2022-07-27T21:41:00.326Z,48.21
2022-07-27T21:43:27.318Z,48.83
2022-07-27T21:45:53.880Z,48.48
2022-07-27T21:48:20.470Z,48.88
2022-07-27T21:50:47.221Z,49.13
2022-07-27T21:53:13.878Z,49.28
2022-07-27T21:55:40.962Z,49.58
2022-07-27T21:58:08.441Z,50.11
2022-07-27T22:00:35.186Z,50.19
2022-07-27T22:03:01.717Z,50.00
2022-07-27T22:05:28.257Z,50.53
2022-07-27T22:07:55.382Z,50.36
2022-07-27T22:10:22.295Z,50.81
2022-07-27T22:12:48.836Z,51.00
2022-07-27T22:15:15.375Z,51.46
2022-07-27T22:17:50.626Z,51.75
2022-07-27T22:20:18.221Z,51.80
2022-07-27T22:22:44.888Z,51.31
2022-07-27T22:25:11.583Z,51.23
2022-07-27T22:27:38.350Z,52.06
2022-07-27T22:30:05.771Z,51.80
2022-07-27T22:32:32.299Z,51.80
2022-07-27T22:34:58.870Z,51.78
2022-07-27T22:37:25.544Z,51.89
2022-07-27T22:39:52.605Z,51.81
2022-07-27T22:42:19.616Z,51.91
2022-07-27T22:44:46.195Z,51.78
2022-07-27T22:47:12.745Z,51.72
2022-07-27T22:49:39.276Z,51.54
2022-07-27T22:52:06.363Z,52.64
2022-07-27T22:54:34.403Z,52.01
2022-07-27T22:57:01.466Z,51.40
2022-07-27T22:59:28.055Z,51.68
2022-07-27T23:01:54.746Z,51.43
2022-07-27T23:04:21.366Z,51.19
2022-07-27T23:06:47.919Z,51.82
2022-07-27T23:09:15.163Z,51.97
2022-07-27T23:11:42.092Z,51.84
2022-07-27T23:14:08.946Z,52.02
2022-07-27T23:16:35.665Z,52.06
2022-07-27T23:19:02.888Z,51.84
2022-07-27T23:21:29.453Z,51.97
2022-07-27T23:23:56.182Z,51.76
2022-07-27T23:26:26.295Z,52.00
2022-07-27T23:28:54.001Z,52.12
2022-07-27T23:31:21.389Z,51.97
2022-07-27T23:33:48.065Z,51.84
2022-07-27T23:36:15.282Z,52.11
2022-07-27T23:38:41.837Z,51.91
2022-07-27T23:41:08.530Z,52.06
2022-07-27T23:43:35.113Z,52.66
2022-07-27T23:46:02.748Z,53.28
2022-07-27T23:48:29.318Z,53.34
2022-07-27T23:50:55.992Z,53.33
2022-07-27T23:53:23.766Z,53.33
2022-07-27T23:55:50.881Z,53.24
2022-07-27T23:58:17.431Z,52.83
